Time;durP1;ratioP1;P1;durP2;ratioP2;P2;SDS_P1;SDS_P2;PMS_P1;PMS_P2;Temp;Humidity;BMP_temperature;BMP_pressure;BME280_temperature;BME280_humidity;BME280_pressure;Samples;Min_cycle;Max_cycle;Signal;HPM_P1;HPM_P2
2022/09/05 00:01:02;;;;;;;6.20;2.42;;;;;;;;;;5068931;28;20063;-75
2022/09/05 00:03:33;;;;;;;7.53;2.70;;;;;;;;;;5068730;28;20095;-75
2022/09/05 00:06:09;;;;;;;4.70;2.28;;;;;;;;;;5070524;28;20134;-74
2022/09/05 00:08:59;;;;;;;3.38;1.50;;;;;;;;;;5070674;28;20024;-77
2022/09/05 00:11:31;;;;;;;2.47;1.50;;;;;;;;;;5057060;28;20036;-77
2022/09/05 00:14:08;;;;;;;2.05;1.38;;;;;;;;;;5074390;28;20033;-76
2022/09/05 00:16:46;;;;;;;1.58;1.40;;;;;;;;;;5065981;28;20028;-76
2022/09/05 00:19:26;;;;;;;1.88;1.50;;;;;;;;;;5062001;28;20067;-76
2022/09/05 00:21:55;;;;;;;1.95;1.60;;;;;;;;;;5065111;28;20013;-78
2022/09/05 00:24:27;;;;;;;3.70;2.05;;;;;;;;;;5065491;28;20020;-77
2022/09/05 00:27:09;;;;;;;4.13;1.70;;;;;;;;;;5070267;28;20033;-78
2022/09/05 00:29:49;;;;;;;5.15;2.10;;;;;;;;;;5073358;28;20067;-77
2022/09/05 00:32:28;;;;;;;4.68;1.90;;;;;;;;;;5065172;28;20052;-77
2022/09/05 00:35:00;;;;;;;3.17;1.90;;;;;;;;;;5070159;28;20090;-77
2022/09/05 00:37:30;;;;;;;5.10;1.80;;;;;;;;;;5072843;28;20036;-77
2022/09/05 00:40:09;;;;;;;4.90;2.08;;;;;;;;;;5067421;28;20373;-78
2022/09/05 00:42:36;;;;;;;2.85;1.85;;;;;;;;;;5068753;28;20586;-76
2022/09/05 00:45:04;;;;;;;3.85;1.92;;;;;;;;;;5068926;28;20028;-77
2022/09/05 00:47:37;;;;;;;4.45;2.00;;;;;;;;;;5070002;28;20052;-76
2022/09/05 00:50:10;;;;;;;5.25;2.00;;;;;;;;;;5070542;28;20028;-77
2022/09/05 00:52:40;;;;;;;4.20;2.13;;;;;;;;;;5058812;28;20084;-77
2022/09/05 00:55:06;;;;;;;5.65;2.03;;;;;;;;;;5084072;28;20109;-77
2022/09/05 00:57:54;;;;;;;4.47;1.70;;;;;;;;;;5071813;28;20024;-76
2022/09/05 01:00:24;;;;;;;5.93;2.05;;;;;;;;;;5063759;28;20103;-76
2022/09/05 01:03:08;;;;;;;5.25;2.05;;;;;;;;;;5071309;28;20629;-76
2022/09/05 01:05:53;;;;;;;7.18;2.00;;;;;;;;;;5071937;28;20020;-76
2022/09/05 01:08:30;;;;;;;4.90;1.88;;;;;;;;;;5068307;28;20029;-77
2022/09/05 01:11:05;;;;;;;3.03;1.85;;;;;;;;;;5066064;28;20028;-77
2022/09/05 01:13:31;;;;;;;;;;;;;;;;;;5079618;28;20477;-78
2022/09/05 01:16:03;;;;;;;3.92;1.95;;;;;;;;;;5068737;28;19915;-77
2022/09/05 01:18:36;;;;;;;9.70;2.25;;;;;;;;;;5067414;28;20466;-76
2022/09/05 01:21:10;;;;;;;4.55;2.00;;;;;;;;;;5086402;28;20029;-77
2022/09/05 01:23:39;;;;;;;4.93;2.17;;;;;;;;;;5055139;28;20067;-76
2022/09/05 01:26:24;;;;;;;5.55;2.03;;;;;;;;;;5068264;28;20569;-76
2022/09/05 01:28:58;;;;;;;4.97;1.95;;;;;;;;;;5060845;28;20036;-77
2022/09/05 01:31:36;;;;;;;4.65;3.10;;;;;;;;;;5058410;28;20037;-76
2022/09/05 01:34:08;;;;;;;3.67;1.67;;;;;;;;;;5071439;28;20047;-77
2022/09/05 01:36:42;;;;;;;6.68;2.30;;;;;;;;;;5068472;28;20029;-77
2022/09/05 01:39:31;;;;;;;5.50;2.30;;;;;;;;;;5070312;28;20029;-76
2022/09/05 01:42:00;;;;;;;9.13;2.25;;;;;;;;;;5069846;28;20139;-77
2022/09/05 01:44:46;;;;;;;6.75;2.33;;;;;;;;;;5072481;28;20059;-77
2022/09/05 01:47:23;;;;;;;6.00;2.20;;;;;;;;;;5062555;28;20029;-76
2022/09/05 01:49:55;;;;;;;5.45;1.80;;;;;;;;;;5070208;28;20044;-76
2022/09/05 01:52:33;;;;;;;6.18;2.33;;;;;;;;;;5062026;28;20623;-76
2022/09/05 01:55:06;;;;;;;10.52;2.95;;;;;;;;;;5067363;28;20052;-76
2022/09/05 01:57:32;;;;;;;6.63;1.80;;;;;;;;;;5066202;28;20093;-76
2022/09/05 02:00:11;;;;;;;5.38;1.90;;;;;;;;;;5078158;28;20035;-75
2022/09/05 02:02:40;;;;;;;6.55;1.70;;;;;;;;;;5075009;28;20111;-77
2022/09/05 02:05:12;;;;;;;2.28;1.52;;;;;;;;;;5076610;28;20063;-76
2022/09/05 02:07:58;;;;;;;10.35;3.25;;;;;;;;;;5075472;28;20021;-76
2022/09/05 02:10:24;;;;;;;1.88;1.65;;;;;;;;;;5073616;28;20028;-76
2022/09/05 02:13:09;;;;;;;6.13;1.90;;;;;;;;;;5083717;28;20064;-76
2022/09/05 02:15:41;;;;;;;5.65;2.00;;;;;;;;;;5090518;28;20029;-76
2022/09/05 02:18:13;;;;;;;3.85;1.92;;;;;;;;;;5072992;28;20531;-76
2022/09/05 02:20:49;;;;;;;3.67;1.90;;;;;;;;;;5073376;28;20024;-77
2022/09/05 02:23:18;;;;;;;3.65;2.08;;;;;;;;;;5089559;28;20016;-76
2022/09/05 02:25:57;;;;;;;6.75;1.80;;;;;;;;;;5078262;28;20040;-76
2022/09/05 02:28:38;;;;;;;4.50;2.08;;;;;;;;;;5076632;28;20887;-77
2022/09/05 02:31:11;;;;;;;10.90;2.20;;;;;;;;;;5067153;28;20381;-77
2022/09/05 02:33:40;;;;;;;3.30;1.73;;;;;;;;;;5074012;28;20052;-76
2022/09/05 02:36:29;;;;;;;3.70;2.15;;;;;;;;;;5069731;28;20058;-76
2022/09/05 02:39:17;;;;;;;4.97;2.60;;;;;;;;;;5066494;28;20385;-76
2022/09/05 02:41:49;;;;;;;7.18;2.70;;;;;;;;;;5078580;28;20032;-77
2022/09/05 02:44:23;;;;;;;7.13;2.40;;;;;;;;;;5076905;28;20033;-76
2022/09/05 02:46:55;;;;;;;5.78;2.05;;;;;;;;;;5069213;28;20105;-76
2022/09/05 02:49:26;;;;;;;4.50;1.80;;;;;;;;;;5073068;28;20078;-78
2022/09/05 02:52:00;;;;;;;7.25;2.05;;;;;;;;;;5076253;28;20040;-77
2022/09/05 02:54:32;;;;;;;4.45;2.05;;;;;;;;;;5085188;28;20078;-77
2022/09/05 02:57:27;;;;;;;6.70;1.83;;;;;;;;;;5068378;28;20025;-76
2022/09/05 03:00:06;;;;;;;6.32;2.72;;;;;;;;;;5070751;28;20027;-76
2022/09/05 03:02:33;;;;;;;10.93;2.20;;;;;;;;;;5075652;28;20412;-76
2022/09/05 03:05:08;;;;;;;5.70;2.20;;;;;;;;;;5069477;28;20025;-76
2022/09/05 03:07:54;;;;;;;6.00;2.42;;;;;;;;;;5066580;28;20100;-76
2022/09/05 03:10:40;;;;;;;10.60;3.25;;;;;;;;;;5063899;28;20029;-76
2022/09/05 03:13:24;;;;;;;9.50;2.88;;;;;;;;;;5071640;28;20035;-76
2022/09/05 03:16:26;;;;;;;6.80;2.58;;;;;;;;;;5082656;28;20564;-76
2022/09/05 03:18:52;;;;;;;11.77;2.40;;;;;;;;;;5030846;28;20026;-77
2022/09/05 03:21:37;;;;;;;9.13;2.60;;;;;;;;;;5054327;28;20622;-76
2022/09/05 03:24:12;;;;;;;6.50;2.38;;;;;;;;;;5069917;28;20031;-77
2022/09/05 03:26:47;;;;;;;5.32;2.50;;;;;;;;;;5067112;28;20024;-76
2022/09/05 03:29:13;;;;;;;;;;;;;;;;;;5069509;28;20423;-77
2022/09/05 03:32:02;;;;;;;7.97;2.25;;;;;;;;;;5070211;28;19967;-78
2022/09/05 03:34:31;;;;;;;5.07;1.95;;;;;;;;;;5071195;28;20178;-76
2022/09/05 03:37:06;;;;;;;10.20;2.30;;;;;;;;;;5064986;28;20119;-77
2022/09/05 03:39:32;;;;;;;;;;;;;;;;;;5079948;28;20032;-76
2022/09/05 03:41:58;;;;;;;4.72;2.67;;;;;;;;;;5066937;28;19908;-76
2022/09/05 03:44:31;;;;;;;8.43;2.97;;;;;;;;;;5070975;28;20021;-76
2022/09/05 03:47:15;;;;;;;9.57;2.25;;;;;;;;;;5069099;28;20350;-75
2022/09/05 03:49:42;;;;;;;6.95;2.50;;;;;;;;;;5073460;28;20031;-77
2022/09/05 03:52:20;;;;;;;7.22;2.95;;;;;;;;;;5066792;28;20041;-76
2022/09/05 03:54:59;;;;;;;6.00;2.05;;;;;;;;;;5067401;28;20102;-76
2022/09/05 03:57:34;;;;;;;8.88;2.10;;;;;;;;;;5085687;28;20480;-76
2022/09/05 04:00:07;;;;;;;10.00;2.10;;;;;;;;;;5061259;28;20052;-76
2022/09/05 04:02:35;;;;;;;8.32;3.13;;;;;;;;;;5069333;28;20032;-76
2022/09/05 04:05:06;;;;;;;4.38;2.33;;;;;;;;;;5064826;28;20547;-77
2022/09/05 04:07:52;;;;;;;6.35;2.00;;;;;;;;;;5067710;28;20056;-77
2022/09/05 04:10:37;;;;;;;7.50;2.10;;;;;;;;;;5073006;28;20040;-77
2022/09/05 04:13:16;;;;;;;9.57;2.27;;;;;;;;;;5064140;28;20052;-76
2022/09/05 04:15:44;;;;;;;6.50;2.20;;;;;;;;;;5070659;28;20283;-77
2022/09/05 04:18:16;;;;;;;6.60;2.25;;;;;;;;;;5064564;28;20025;-76
2022/09/05 04:20:47;;;;;;;13.52;2.47;;;;;;;;;;5068204;28;20020;-77
2022/09/05 04:23:52;;;;;;;9.80;2.30;;;;;;;;;;5070910;28;20024;-75
2022/09/05 04:26:27;;;;;;;5.43;2.60;;;;;;;;;;5022249;28;20092;-75
2022/09/05 04:29:09;;;;;;;9.35;2.45;;;;;;;;;;5012023;28;20095;-77
2022/09/05 04:31:44;;;;;;;6.97;2.63;;;;;;;;;;5050996;28;20040;-76
2022/09/05 04:34:17;;;;;;;6.82;2.38;;;;;;;;;;5068176;28;20020;-76
2022/09/05 04:36:43;;;;;;;5.60;2.00;;;;;;;;;;5063131;28;20032;-78
2022/09/05 04:39:18;;;;;;;6.18;2.05;;;;;;;;;;5087558;28;20038;-76
2022/09/05 04:41:44;;;;;;;;;;;;;;;;;;5067058;28;20538;-77
2022/09/05 04:44:15;;;;;;;6.63;2.15;;;;;;;;;;5073900;28;19905;-76
2022/09/05 04:46:44;;;;;;;11.63;2.60;;;;;;;;;;5066539;28;20032;-77
2022/09/05 04:49:19;;;;;;;9.43;2.25;;;;;;;;;;5070896;28;20115;-76
2022/09/05 04:51:57;;;;;;;5.50;2.00;;;;;;;;;;5068195;28;20020;-75
2022/09/05 04:54:42;;;;;;;4.30;2.08;;;;;;;;;;5070644;28;20063;-77
2022/09/05 04:57:08;;;;;;;10.77;2.78;;;;;;;;;;5070456;28;20063;-77
2022/09/05 04:59:40;;;;;;;6.32;2.05;;;;;;;;;;5069596;28;20107;-78
2022/09/05 05:02:26;;;;;;;3.50;1.73;;;;;;;;;;5072200;28;20020;-76
2022/09/05 05:04:58;;;;;;;4.55;2.80;;;;;;;;;;5059063;28;20092;-77
2022/09/05 05:07:39;;;;;;;7.65;2.67;;;;;;;;;;5070837;28;20436;-77
2022/09/05 05:10:07;;;;;;;7.57;1.75;;;;;;;;;;5070008;28;20033;-76
2022/09/05 05:12:52;;;;;;;6.43;2.22;;;;;;;;;;5069521;28;20025;-77
2022/09/05 05:15:21;;;;;;;4.72;2.30;;;;;;;;;;5070765;28;20111;-77
2022/09/05 05:18:05;;;;;;;8.32;2.10;;;;;;;;;;5064932;28;20016;-76
2022/09/05 05:20:35;;;;;;;5.63;2.08;;;;;;;;;;5062386;28;20078;-77
2022/09/05 05:23:03;;;;;;;8.48;2.10;;;;;;;;;;5077032;28;20078;-76
2022/09/05 05:25:32;;;;;;;11.50;2.10;;;;;;;;;;5070076;28;20024;-75
2022/09/05 05:28:05;;;;;;;6.30;1.73;;;;;;;;;;5068851;28;20046;-76
2022/09/05 05:30:32;;;;;;;6.82;2.35;;;;;;;;;;5067980;28;20040;-75
2022/09/05 05:33:01;;;;;;;2.85;1.60;;;;;;;;;;5064834;28;20020;-76
2022/09/05 05:35:30;;;;;;;4.45;1.80;;;;;;;;;;5069427;28;20028;-76
2022/09/05 05:38:08;;;;;;;4.30;2.22;;;;;;;;;;5071304;28;20034;-76
2022/09/05 05:40:36;;;;;;;5.82;1.67;;;;;;;;;;5069613;28;20028;-75
2022/09/05 05:43:16;;;;;;;5.43;2.20;;;;;;;;;;5064678;28;20170;-76
2022/09/05 05:45:42;;;;;;;5.18;2.00;;;;;;;;;;5067170;28;20024;-76
2022/09/05 05:48:18;;;;;;;5.55;2.25;;;;;;;;;;5066114;28;20025;-77
2022/09/05 05:50:56;;;;;;;9.90;1.98;;;;;;;;;;5072085;28;20021;-77
2022/09/05 05:53:40;;;;;;;4.00;2.00;;;;;;;;;;5064920;28;20033;-75
2022/09/05 05:56:06;;;;;;;7.75;2.50;;;;;;;;;;5071400;28;20481;-77
2022/09/05 05:58:38;;;;;;;4.05;2.00;;;;;;;;;;5063728;28;20778;-76
2022/09/05 06:01:05;;;;;;;7.75;1.85;;;;;;;;;;5072651;28;20020;-77
2022/09/05 06:03:49;;;;;;;4.90;2.10;;;;;;;;;;5071141;28;20027;-75
2022/09/05 06:06:15;;;;;;;7.35;2.22;;;;;;;;;;5069522;28;20032;-75
2022/09/05 06:08:58;;;;;;;8.52;3.00;;;;;;;;;;5069452;28;20025;-75
2022/09/05 06:11:54;;;;;;;3.72;2.03;;;;;;;;;;5067272;28;20574;-77
2022/09/05 06:14:39;;;;;;;7.47;2.00;;;;;;;;;;5069715;28;20037;-75
2022/09/05 06:17:24;;;;;;;4.57;2.00;;;;;;;;;;5084453;28;20024;-74
2022/09/05 06:20:30;;;;;;;7.93;2.17;;;;;;;;;;5067092;28;20031;-76
2022/09/05 06:23:12;;;;;;;4.97;1.90;;;;;;;;;;5048126;28;20082;-74
2022/09/05 06:26:06;;;;;;;2.60;1.73;;;;;;;;;;5047012;28;20027;-78
2022/09/05 06:28:51;;;;;;;4.93;2.08;;;;;;;;;;5059805;28;20028;-75
2022/09/05 06:31:36;;;;;;;5.75;3.17;;;;;;;;;;5066747;28;20096;-73
2022/09/05 06:34:11;;;;;;;4.07;1.98;;;;;;;;;;5068527;28;20032;-76
2022/09/05 06:36:51;;;;;;;4.95;1.75;;;;;;;;;;5071652;28;20078;-77
2022/09/05 06:39:24;;;;;;;6.45;2.13;;;;;;;;;;5067449;28;20013;-75
2022/09/05 06:42:17;;;;;;;4.97;2.03;;;;;;;;;;5070413;28;20063;-75
2022/09/05 06:44:55;;;;;;;2.83;1.90;;;;;;;;;;5071637;28;20032;-75
2022/09/05 06:47:22;;;;;;;10.18;2.10;;;;;;;;;;5072658;28;20136;-75
2022/09/05 06:49:50;;;;;;;4.63;2.20;;;;;;;;;;5074901;28;20029;-77
2022/09/05 06:52:36;;;;;;;9.07;1.95;;;;;;;;;;5076183;28;20491;-76
2022/09/05 06:55:10;;;;;;;7.85;2.22;;;;;;;;;;5071771;28;20075;-78
2022/09/05 06:57:47;;;;;;;6.85;1.90;;;;;;;;;;5074834;28;20076;-76
2022/09/05 07:00:13;;;;;;;2.75;1.70;;;;;;;;;;5073018;28;20084;-76
2022/09/05 07:02:58;;;;;;;3.90;1.83;;;;;;;;;;5084984;28;20021;-77
2022/09/05 07:05:24;;;;;;;3.63;1.95;;;;;;;;;;5072332;28;20063;-76
2022/09/05 07:07:53;;;;;;;5.38;2.03;;;;;;;;;;5074524;28;20093;-76
2022/09/05 07:10:25;;;;;;;4.93;2.40;;;;;;;;;;5072957;28;20039;-78
2022/09/05 07:13:13;;;;;;;4.10;2.70;;;;;;;;;;5079707;28;20090;-76
2022/09/05 07:15:48;;;;;;;4.10;1.85;;;;;;;;;;5068152;28;20035;-76
2022/09/05 07:18:15;;;;;;;;;;;;;;;;;;5071033;28;20069;-75
2022/09/05 07:20:52;;;;;;;7.32;2.38;;;;;;;;;;5090116;28;19939;-75
2022/09/05 07:23:27;;;;;;;7.68;2.15;;;;;;;;;;5071876;28;20017;-76
2022/09/05 07:25:54;;;;;;;;;;;;;;;;;;5071303;28;20602;-75
2022/09/05 07:28:21;;;;;;;4.45;1.70;;;;;;;;;;5074275;28;19912;-77
2022/09/05 07:30:49;;;;;;;7.90;2.10;;;;;;;;;;5081069;28;20032;-76
2022/09/05 07:33:24;;;;;;;11.32;2.92;;;;;;;;;;5069832;28;20746;-75
2022/09/05 07:35:50;;;;;;;;;;;;;;;;;;5071868;28;20029;-76
2022/09/05 07:38:29;;;;;;;5.60;1.95;;;;;;;;;;5072301;28;19923;-74
2022/09/05 07:41:10;;;;;;;3.95;2.20;;;;;;;;;;5068296;28;20031;-74
2022/09/05 07:43:38;;;;;;;5.03;2.00;;;;;;;;;;5069543;28;20055;-75
2022/09/05 07:46:05;;;;;;;6.80;1.70;;;;;;;;;;5072864;28;20052;-75
2022/09/05 07:48:37;;;;;;;5.70;2.10;;;;;;;;;;5072762;28;20027;-76
2022/09/05 07:51:05;;;;;;;5.13;2.00;;;;;;;;;;5073421;28;20021;-76
2022/09/05 07:53:31;;;;;;;8.38;2.20;;;;;;;;;;5075406;28;20028;-74
2022/09/05 07:55:58;;;;;;;3.85;1.60;;;;;;;;;;5067198;28;20098;-75
2022/09/05 07:58:48;;;;;;;4.82;2.28;;;;;;;;;;5073976;28;20024;-78
2022/09/05 08:01:16;;;;;;;6.93;2.20;;;;;;;;;;5064734;28;20120;-76
2022/09/05 08:03:43;;;;;;;4.63;2.00;;;;;;;;;;5062752;28;20079;-77
2022/09/05 08:06:13;;;;;;;5.90;1.90;;;;;;;;;;5065455;28;20036;-76
2022/09/05 08:08:49;;;;;;;5.85;2.00;;;;;;;;;;5066992;28;20541;-77
2022/09/05 08:11:16;;;;;;;5.60;1.92;;;;;;;;;;5072673;28;20028;-75
2022/09/05 08:13:46;;;;;;;6.90;3.30;;;;;;;;;;5073271;28;20040;-75
2022/09/05 08:16:15;;;;;;;5.28;1.98;;;;;;;;;;5064239;28;20079;-76
2022/09/05 08:18:48;;;;;;;6.55;2.05;;;;;;;;;;5088773;28;20025;-76
2022/09/05 08:21:24;;;;;;;9.20;2.60;;;;;;;;;;5070694;28;20035;-77
2022/09/05 08:23:53;;;;;;;5.40;2.10;;;;;;;;;;5061994;28;20032;-75
2022/09/05 08:26:22;;;;;;;6.47;2.10;;;;;;;;;;5073368;28;20028;-78
2022/09/05 08:29:04;;;;;;;8.52;1.90;;;;;;;;;;5066548;28;20086;-75
2022/09/05 08:31:30;;;;;;;11.15;2.15;;;;;;;;;;5066231;28;20037;-74
2022/09/05 08:33:59;;;;;;;4.88;2.10;;;;;;;;;;5073907;28;20046;-74
2022/09/05 08:36:33;;;;;;;8.40;2.08;;;;;;;;;;5061928;28;20059;-74
2022/09/05 08:39:02;;;;;;;7.45;2.00;;;;;;;;;;5084490;28;20029;-74
2022/09/05 08:41:34;;;;;;;5.85;1.88;;;;;;;;;;5072507;28;20016;-75
2022/09/05 08:44:12;;;;;;;6.72;1.88;;;;;;;;;;5071033;28;20059;-76
2022/09/05 08:46:51;;;;;;;5.60;2.00;;;;;;;;;;5072170;28;20031;-74
2022/09/05 08:49:43;;;;;;;6.22;2.10;;;;;;;;;;5067134;28;20029;-75
2022/09/05 08:52:19;;;;;;;3.97;1.83;;;;;;;;;;5076211;28;20047;-76
2022/09/05 08:54:58;;;;;;;5.30;2.25;;;;;;;;;;5072540;28;20059;-74
2022/09/05 08:57:24;;;;;;;5.90;2.15;;;;;;;;;;5067697;28;20036;-75
2022/09/05 09:00:10;;;;;;;5.07;2.00;;;;;;;;;;5069631;28;20025;-76
2022/09/05 09:02:36;;;;;;;;;;;;;;;;;;5077412;28;20043;-74
2022/09/05 09:05:06;;;;;;;5.07;3.15;;;;;;;;;;5069332;28;19909;-78
2022/09/05 09:07:42;;;;;;;6.30;2.17;;;;;;;;;;5073286;28;20024;-75
2022/09/05 09:10:08;;;;;;;5.15;2.80;;;;;;;;;;5069646;28;20030;-74
2022/09/05 09:12:53;;;;;;;6.15;2.33;;;;;;;;;;5074455;28;20029;-74
2022/09/05 09:15:42;;;;;;;3.90;1.92;;;;;;;;;;5067537;28;20036;-76
2022/09/05 09:18:15;;;;;;;8.50;2.53;;;;;;;;;;5067016;28;20067;-75
2022/09/05 09:20:51;;;;;;;4.57;1.42;;;;;;;;;;5073278;28;20084;-77
2022/09/05 09:23:17;;;;;;;7.47;2.25;;;;;;;;;;5072538;28;20024;-75
2022/09/05 09:26:02;;;;;;;8.73;2.53;;;;;;;;;;5073233;28;20025;-75
2022/09/05 09:28:47;;;;;;;7.05;2.22;;;;;;;;;;5064173;28;20078;-75
2022/09/05 09:31:16;;;;;;;8.63;2.50;;;;;;;;;;5073082;28;20039;-74
2022/09/05 09:34:02;;;;;;;6.97;2.00;;;;;;;;;;5069494;28;20473;-77
2022/09/05 09:36:49;;;;;;;6.68;2.33;;;;;;;;;;5043568;28;20041;-75
2022/09/05 09:39:35;;;;;;;3.72;1.67;;;;;;;;;;5041926;28;20091;-75
2022/09/05 09:42:17;;;;;;;5.45;2.33;;;;;;;;;;5068051;28;20529;-75
2022/09/05 09:45:02;;;;;;;6.35;2.08;;;;;;;;;;5070595;28;20655;-77
2022/09/05 09:47:34;;;;;;;6.35;2.10;;;;;;;;;;5073292;28;20029;-76
2022/09/05 09:50:13;;;;;;;7.00;2.10;;;;;;;;;;5070144;28;20119;-75
2022/09/05 09:52:39;;;;;;;4.03;2.00;;;;;;;;;;5068717;28;20124;-76
2022/09/05 09:55:24;;;;;;;11.05;2.60;;;;;;;;;;5071856;28;20044;-77
2022/09/05 09:58:06;;;;;;;3.38;2.00;;;;;;;;;;5072038;28;20047;-75
2022/09/05 10:00:53;;;;;;;6.78;2.40;;;;;;;;;;5061667;28;20017;-75
2022/09/05 10:03:41;;;;;;;7.43;2.72;;;;;;;;;;5067569;28;20131;-76
2022/09/05 10:06:07;;;;;;;6.25;2.05;;;;;;;;;;5073549;28;20070;-76
2022/09/05 10:08:43;;;;;;;6.30;2.42;;;;;;;;;;5072001;28;20024;-75
2022/09/05 10:11:27;;;;;;;6.93;2.00;;;;;;;;;;5070062;28;20476;-75
2022/09/05 10:14:11;;;;;;;9.05;3.30;;;;;;;;;;5067307;28;20111;-76
2022/09/05 10:16:38;;;;;;;5.50;2.22;;;;;;;;;;5063420;28;20021;-76
2022/09/05 10:19:04;;;;;;;8.13;2.15;;;;;;;;;;5072832;28;20054;-75
2022/09/05 10:21:30;;;;;;;8.10;2.65;;;;;;;;;;5075247;28;20028;-77
2022/09/05 10:23:59;;;;;;;5.50;2.20;;;;;;;;;;5073187;28;20025;-75
2022/09/05 10:26:25;;;;;;;5.63;2.30;;;;;;;;;;5083375;28;20078;-76
2022/09/05 10:29:15;;;;;;;12.57;3.80;;;;;;;;;;5073248;28;20037;-77
2022/09/05 10:31:45;;;;;;;9.88;2.55;;;;;;;;;;5073358;28;20249;-76
2022/09/05 10:34:17;;;;;;;9.57;2.45;;;;;;;;;;5074099;28;20055;-76
2022/09/05 10:36:49;;;;;;;8.80;2.50;;;;;;;;;;5071386;28;20024;-78
2022/09/05 10:39:25;;;;;;;5.13;3.10;;;;;;;;;;5074963;28;20775;-75
2022/09/05 10:41:57;;;;;;;7.97;2.70;;;;;;;;;;5073864;28;20283;-75
2022/09/05 10:44:41;;;;;;;7.70;2.50;;;;;;;;;;5063123;28;20021;-78
2022/09/05 10:47:17;;;;;;;6.80;2.30;;;;;;;;;;5071188;28;20503;-75
2022/09/05 10:49:44;;;;;;;8.52;2.47;;;;;;;;;;5070377;28;20024;-77
2022/09/05 10:52:13;;;;;;;6.97;2.67;;;;;;;;;;5069647;28;20464;-76
2022/09/05 10:55:04;;;;;;;6.63;3.15;;;;;;;;;;5081538;28;20044;-75
2022/09/05 10:57:39;;;;;;;6.30;2.47;;;;;;;;;;5071492;28;20040;-76
2022/09/05 11:00:12;;;;;;;9.55;2.60;;;;;;;;;;5069885;28;20085;-76
2022/09/05 11:02:41;;;;;;;7.97;2.60;;;;;;;;;;5077652;28;20477;-77
2022/09/05 11:05:10;;;;;;;8.13;2.78;;;;;;;;;;5069692;28;20496;-77
2022/09/05 11:07:48;;;;;;;8.07;2.45;;;;;;;;;;5069002;28;20028;-78
2022/09/05 11:10:14;;;;;;;9.15;2.72;;;;;;;;;;5074146;28;20074;-77
2022/09/05 11:12:59;;;;;;;8.85;2.50;;;;;;;;;;5074743;28;20068;-77
2022/09/05 11:15:44;;;;;;;5.35;2.67;;;;;;;;;;5079382;28;20090;-79
2022/09/05 11:18:39;;;;;;;5.43;2.20;;;;;;;;;;5070002;28;20029;-78
2022/09/05 11:21:07;;;;;;;8.75;2.65;;;;;;;;;;5064179;28;20055;-76
2022/09/05 11:23:43;;;;;;;5.93;2.30;;;;;;;;;;5073206;28;20025;-77
2022/09/05 11:26:16;;;;;;;7.43;2.28;;;;;;;;;;5071541;28;20021;-75
2022/09/05 11:28:51;;;;;;;7.90;3.40;;;;;;;;;;5072573;28;20028;-75
2022/09/05 11:31:19;;;;;;;9.80;2.83;;;;;;;;;;5074109;28;20082;-77
2022/09/05 11:34:00;;;;;;;7.30;2.17;;;;;;;;;;5061692;28;20035;-76
2022/09/05 11:36:33;;;;;;;9.35;3.58;;;;;;;;;;5073181;28;20038;-78
2022/09/05 11:39:00;;;;;;;6.75;2.45;;;;;;;;;;5075675;28;20053;-75
2022/09/05 11:41:45;;;;;;;7.22;2.65;;;;;;;;;;5072683;28;20535;-76
2022/09/05 11:44:22;;;;;;;6.20;2.13;;;;;;;;;;5062320;28;20075;-77
2022/09/05 11:47:10;;;;;;;6.07;2.22;;;;;;;;;;5062791;28;20033;-77
2022/09/05 11:49:36;;;;;;;2.30;1.80;;;;;;;;;;5074580;28;20028;-78
2022/09/05 11:52:05;;;;;;;7.22;2.58;;;;;;;;;;5084768;28;20034;-77
2022/09/05 11:54:48;;;;;;;6.30;2.33;;;;;;;;;;5074076;28;20024;-75
2022/09/05 11:57:28;;;;;;;8.38;2.92;;;;;;;;;;5087513;28;20044;-75
2022/09/05 12:00:13;;;;;;;6.82;2.38;;;;;;;;;;5060044;28;20597;-77
2022/09/05 12:02:40;;;;;;;8.93;2.40;;;;;;;;;;5086583;28;20021;-75
2022/09/05 12:05:25;;;;;;;6.22;2.78;;;;;;;;;;5058321;28;20032;-75
2022/09/05 12:07:51;;;;;;;5.25;2.08;;;;;;;;;;5071813;28;20036;-76
2022/09/05 12:10:27;;;;;;;6.05;2.35;;;;;;;;;;5074340;28;20388;-76
2022/09/05 12:12:54;;;;;;;8.27;2.65;;;;;;;;;;5074058;28;20033;-80
2022/09/05 12:15:25;;;;;;;8.95;2.58;;;;;;;;;;5072496;28;20033;-79
2022/09/05 12:18:18;;;;;;;6.63;2.95;;;;;;;;;;5071778;28;20037;-76
2022/09/05 12:20:53;;;;;;;7.65;2.60;;;;;;;;;;5066031;28;20030;-75
2022/09/05 12:23:27;;;;;;;5.72;2.13;;;;;;;;;;5077030;28;20048;-79
2022/09/05 12:25:53;;;;;;;5.47;2.15;;;;;;;;;;5070775;28;20057;-78
2022/09/05 12:28:35;;;;;;;6.50;2.50;;;;;;;;;;5067241;28;20030;-78
2022/09/05 12:31:19;;;;;;;5.20;2.38;;;;;;;;;;5067833;28;20039;-78
2022/09/05 12:33:47;;;;;;;9.95;2.60;;;;;;;;;;5063838;28;20020;-78
2022/09/05 12:36:19;;;;;;;3.83;1.90;;;;;;;;;;5059352;28;20532;-78
2022/09/05 12:39:21;;;;;;;5.40;2.30;;;;;;;;;;5070365;28;20036;-78
2022/09/05 12:41:50;;;;;;;7.90;2.47;;;;;;;;;;5047293;28;20445;-76
2022/09/05 12:44:19;;;;;;;6.25;2.28;;;;;;;;;;5064772;28;20071;-77
2022/09/05 12:46:45;;;;;;;7.13;2.50;;;;;;;;;;5070263;28;20540;-76
2022/09/05 12:49:18;;;;;;;4.72;2.40;;;;;;;;;;5072538;28;20033;-76
2022/09/05 12:51:53;;;;;;;5.60;2.20;;;;;;;;;;5070566;28;20013;-74
2022/09/05 12:54:21;;;;;;;;;;;;;;;;;;5067927;28;20028;-79
2022/09/05 12:56:51;;;;;;;11.57;2.67;;;;;;;;;;5058866;28;19916;-76
2022/09/05 12:59:19;;;;;;;10.88;3.28;;;;;;;;;;5068372;28;20036;-76
2022/09/05 13:01:57;;;;;;;9.10;2.30;;;;;;;;;;5067391;28;20027;-77
2022/09/05 13:04:24;;;;;;;8.63;2.88;;;;;;;;;;5067431;28;20027;-78
2022/09/05 13:06:59;;;;;;;6.15;2.35;;;;;;;;;;5070127;28;20146;-75
2022/09/05 13:09:25;;;;;;;5.50;2.85;;;;;;;;;;5072906;28;20070;-74
2022/09/05 13:12:04;;;;;;;8.82;2.20;;;;;;;;;;5072468;28;20036;-77
2022/09/05 13:14:42;;;;;;;7.80;2.88;;;;;;;;;;5074124;28;20496;-75
2022/09/05 13:17:12;;;;;;;6.60;2.65;;;;;;;;;;5074522;28;20059;-73
2022/09/05 13:19:42;;;;;;;9.90;2.50;;;;;;;;;;5067361;28;20063;-77
2022/09/05 13:22:10;;;;;;;7.80;2.42;;;;;;;;;;5073170;28;20090;-76
2022/09/05 13:24:40;;;;;;;10.55;3.00;;;;;;;;;;5069997;28;20465;-77
2022/09/05 13:27:38;;;;;;;9.00;2.80;;;;;;;;;;5065963;28;20422;-75
2022/09/05 13:30:14;;;;;;;11.57;2.55;;;;;;;;;;5059093;28;20056;-76
2022/09/05 13:32:44;;;;;;;10.02;3.33;;;;;;;;;;5070778;28;20024;-75
2022/09/05 13:35:11;;;;;;;9.55;2.85;;;;;;;;;;5076569;28;20124;-76
2022/09/05 13:37:51;;;;;;;10.25;2.47;;;;;;;;;;5071995;28;20031;-76
2022/09/05 13:40:19;;;;;;;7.85;2.92;;;;;;;;;;5067021;28;20028;-77
2022/09/05 13:42:56;;;;;;;9.57;3.00;;;;;;;;;;5071159;28;20086;-79
2022/09/05 13:45:22;;;;;;;8.68;3.45;;;;;;;;;;5067811;28;20504;-75
2022/09/05 13:48:26;;;;;;;8.30;3.67;;;;;;;;;;5068552;28;20035;-76
2022/09/05 13:50:54;;;;;;;8.77;3.30;;;;;;;;;;5027346;28;20375;-76
2022/09/05 13:53:42;;;;;;;16.95;3.63;;;;;;;;;;5059632;28;20037;-75
2022/09/05 13:56:22;;;;;;;11.27;3.08;;;;;;;;;;5068558;28;20075;-76
2022/09/05 13:58:55;;;;;;;15.20;4.30;;;;;;;;;;5061637;28;20084;-74
2022/09/05 14:01:32;;;;;;;11.43;2.92;;;;;;;;;;5066643;28;20017;-74
2022/09/05 14:04:14;;;;;;;10.65;3.17;;;;;;;;;;5071395;28;20020;-74
2022/09/05 14:06:46;;;;;;;10.88;3.33;;;;;;;;;;5065879;28;20024;-74
2022/09/05 14:09:19;;;;;;;13.38;3.83;;;;;;;;;;5066993;28;20083;-75
2022/09/05 14:11:48;;;;;;;13.85;3.13;;;;;;;;;;5067750;28;20024;-75
2022/09/05 14:14:30;;;;;;;9.98;4.50;;;;;;;;;;5065547;28;20021;-75
2022/09/05 14:17:07;;;;;;;13.85;3.63;;;;;;;;;;5071441;28;20029;-75
2022/09/05 14:22:39;;;;;;;9.80;3.10;;;;;;;;;;5061194;28;20534;-75
2022/09/05 14:25:05;;;;;;;;;;;;;;;;;;5064028;28;20017;-75
2022/09/05 14:27:32;;;;;;;8.98;3.20;;;;;;;;;;5069998;28;19976;-75
2022/09/05 14:29:58;;;;;;;7.65;3.08;;;;;;;;;;5061805;28;20048;-76
2022/09/05 14:32:36;;;;;;;8.50;3.45;;;;;;;;;;5062089;28;20552;-74
2022/09/05 14:35:03;;;;;;;9.38;4.05;;;;;;;;;;5067071;28;20549;-76
2022/09/05 14:37:29;;;;;;;16.02;3.65;;;;;;;;;;5065040;28;20021;-75
2022/09/05 14:40:13;;;;;;;15.05;3.30;;;;;;;;;;5062472;28;20384;-75
2022/09/05 14:42:58;;;;;;;12.57;3.60;;;;;;;;;;5055131;28;20080;-78
2022/09/05 14:45:43;;;;;;;8.90;2.95;;;;;;;;;;5058979;28;20042;-74
2022/09/05 14:48:40;;;;;;;10.15;3.53;;;;;;;;;;5063727;28;20042;-74
2022/09/05 14:51:30;;;;;;;9.75;3.05;;;;;;;;;;5069127;28;20070;-78
2022/09/05 14:54:00;;;;;;;9.63;3.17;;;;;;;;;;5066471;28;20052;-75
2022/09/05 14:56:37;;;;;;;13.07;5.82;;;;;;;;;;5066413;28;20415;-75
2022/09/05 14:59:09;;;;;;;15.73;4.97;;;;;;;;;;5078771;28;20040;-84
2022/09/05 15:01:55;;;;;;;15.57;4.40;;;;;;;;;;5065282;28;20033;-78
2022/09/05 15:04:27;;;;;;;13.90;4.10;;;;;;;;;;5045962;28;20111;-75
2022/09/05 15:07:08;;;;;;;7.55;2.92;;;;;;;;;;5067907;28;20039;-77
2022/09/05 15:09:36;;;;;;;8.70;2.70;;;;;;;;;;5083417;28;20033;-75
2022/09/05 15:12:15;;;;;;;13.52;4.38;;;;;;;;;;5071608;28;20031;-74
2022/09/05 15:14:52;;;;;;;10.10;3.08;;;;;;;;;;5076159;28;20421;-84
2022/09/05 15:17:26;;;;;;;14.40;4.38;;;;;;;;;;5077099;28;20032;-74
2022/09/05 15:19:58;;;;;;;18.80;5.05;;;;;;;;;;5081436;28;20028;-74
2022/09/05 15:22:27;;;;;;;12.32;3.70;;;;;;;;;;5081866;28;20459;-75
2022/09/05 15:25:13;;;;;;;8.63;3.22;;;;;;;;;;5081756;28;20031;-77
2022/09/05 15:27:39;;;;;;;;;;;;;;;;;;5078965;28;20031;-74
2022/09/05 15:30:06;;;;;;;10.32;3.70;;;;;;;;;;5074336;28;20438;-75
2022/09/05 15:32:37;;;;;;;8.52;3.45;;;;;;;;;;5080005;28;20036;-77
2022/09/05 15:35:05;;;;;;;13.07;3.72;;;;;;;;;;5070743;28;20060;-76
2022/09/05 15:37:39;;;;;;;12.35;3.67;;;;;;;;;;5080401;28;20036;-75